Terminal Aerodrome Forecast
Issued by NWS Quad Cities IA IL

Home | Current Version | Previous Version | Graphics & Text | Print | Product List | Glossary On
Versions: 1 2 3 4 5 6 7 8 9 10 11 12 13 14 15 16 17 18 19 20 21 22 23 24 25
109
FTUS43 KDVN 042217 AAA
TAFDBQ
TAF AMD
KDBQ 042217Z 0422/0518 20009KT 4SM BR OVC004
     FM050000 24006KT 3SM BR OVC003
     FM050300 VRB05KT 1/2SM FG OVC003
     FM051600 17007KT 3SM BR BKN003=

USA.gov is the U.S. government's official web portal to all federal, state and local government web resources and services.